Damme, Belgium
Current Conditions -  °F | °C
As of 8:55 PM on Friday 24 Oct 2014 (Local Time) from EHFS Reporting Station
Light Rain Light Rain  
Wind Chill: 12°   Ceiling: 700
Heat Index: 12°   Visibility: 2.3mi
Dew Point: 12°   Wind: 21mph
Humidity: 100%   Direction: 190°S
Pressure: 29.97"   Gusts: NA
Location:  51.25°N, 3.28°E
Report Text: EHFS 241855Z AUTO 19018KT 3700 -RA SCT004/// SCT006///BKN007/// 12/12 Q1015
Loading
Personal Weather Stations






























Interactive Weather Map
Tropical Storm Tracking
New forecast layout! Learn more

10-Day Weather Forecast

Advertisements
Track Severe Weather on mobile